Time;durP1;ratioP1;P1;durP2;ratioP2;P2;SDS_P1;SDS_P2;PMS_P1;PMS_P2;Temp;Humidity;BMP_temperature;BMP_pressure;BME280_temperature;BME280_humidity;BME280_pressure;Samples;Min_cycle;Max_cycle;Signal;HPM_P1;HPM_P2
2024/04/10 00:01:29;;;;;;;4.32;0.73;;;;;;;6.63;100.00;101204.09;5432377;26;20014;-73
2024/04/10 00:04:00;;;;;;;1.77;0.57;;;;;;;6.58;100.00;101195.84;5438265;26;20108;-72
2024/04/10 00:06:30;;;;;;;2.10;0.50;;;;;;;6.53;100.00;101196.63;5443300;26;20014;-72
2024/04/10 00:09:01;;;;;;;2.03;0.68;;;;;;;6.46;100.00;101208.97;5407857;26;20022;-72
2024/04/10 00:11:30;;;;;;;2.95;0.50;;;;;;;6.39;100.00;101212.28;5444886;26;20053;-72
2024/04/10 00:14:02;;;;;;;2.45;0.65;;;;;;;6.38;100.00;101221.78;5444915;26;19999;-73
2024/04/10 00:16:30;;;;;;;2.38;0.60;;;;;;;6.37;100.00;101218.28;5437165;26;20002;-71
2024/04/10 00:19:01;;;;;;;1.98;0.47;;;;;;;6.38;100.00;101219.81;5438226;26;20018;-71
2024/04/10 00:21:33;;;;;;;1.73;0.57;;;;;;;6.37;100.00;101212.78;5438222;26;20018;-70
2024/04/10 00:24:04;;;;;;;0.40;0.20;;;;;;;6.38;100.00;101221.78;5445210;26;20053;-71
2024/04/10 00:26:32;;;;;;;1.80;0.75;;;;;;;6.38;100.00;101224.53;5423102;26;20387;-71
2024/04/10 00:29:04;;;;;;;2.33;0.40;;;;;;;6.37;100.00;101228.56;5439409;26;20007;-71
2024/04/10 00:31:32;;;;;;;2.40;0.55;;;;;;;6.38;100.00;101224.53;5432380;26;20046;-71
2024/04/10 00:34:05;;;;;;;;;;;;;;;6.38;100.00;101221.78;5444808;26;20000;-71
2024/04/10 00:36:35;;;;;;;2.92;1.08;;;;;;;6.38;100.00;101219.81;5448945;26;20444;-72
2024/04/10 00:39:07;;;;;;;2.65;0.57;;;;;;;6.35;100.00;101229.06;5445947;26;20002;-71
2024/04/10 00:41:35;;;;;;;0.60;0.10;;;;;;;6.30;100.00;101227.09;5429206;26;20043;-71
2024/04/10 00:44:06;;;;;;;2.75;0.60;;;;;;;6.29;100.00;101227.63;5431510;26;20893;-71
2024/04/10 00:46:35;;;;;;;1.05;0.40;;;;;;;6.28;100.00;101232.41;5427172;26;20014;-71
2024/04/10 00:49:06;;;;;;;0.60;0.32;;;;;;;6.28;100.00;101240.66;5430145;26;20011;-73
2024/04/10 00:51:37;;;;;;;1.38;0.40;;;;;;;6.30;100.00;101246.41;5429700;26;20781;-73
2024/04/10 00:54:09;;;;;;;2.92;0.50;;;;;;;6.34;100.00;101252.41;5441300;26;20018;-73
2024/04/10 00:56:36;;;;;;;4.30;0.80;;;;;;;6.42;100.00;101247.81;5456621;26;20015;-73
2024/04/10 00:59:07;;;;;;;0.77;0.43;;;;;;;6.52;100.00;101261.31;5431104;26;20094;-73
2024/04/10 01:01:35;;;;;;;2.28;0.65;;;;;;;6.59;100.00;101266.28;5429371;26;20576;-73
2024/04/10 01:04:06;;;;;;;1.23;0.47;;;;;;;6.66;100.00;101272.00;5409832;26;20014;-74
2024/04/10 01:06:37;;;;;;;2.85;0.70;;;;;;;6.77;100.00;101268.41;5428247;26;20010;-73
2024/04/10 01:09:07;;;;;;;0.90;0.30;;;;;;;6.85;100.00;101272.13;5431483;26;20103;-73
2024/04/10 01:11:36;;;;;;;0.77;0.40;;;;;;;6.96;100.00;101265.75;5441220;26;20006;-72
2024/04/10 01:14:06;;;;;;;3.00;0.63;;;;;;;7.03;100.00;101258.94;5441582;26;20068;-73
2024/04/10 01:16:35;;;;;;;3.40;0.28;;;;;;;7.10;100.00;101253.59;5440389;26;20014;-73
2024/04/10 01:19:06;;;;;;;1.45;0.73;;;;;;;7.17;100.00;101260.56;5443134;26;19999;-72
2024/04/10 01:21:36;;;;;;;1.15;0.20;;;;;;;7.25;100.00;101267.03;5455371;26;20017;-72
2024/04/10 01:24:09;;;;;;;1.15;0.52;;;;;;;7.26;100.00;101265.75;5462768;26;20410;-73
2024/04/10 01:26:37;;;;;;;1.65;0.47;;;;;;;7.26;100.00;101271.25;5434915;26;20011;-73
2024/04/10 01:29:08;;;;;;;3.05;1.23;;;;;;;7.24;100.00;101273.03;5434198;26;20020;-72
2024/04/10 01:31:36;;;;;;;3.78;0.63;;;;;;;7.14;100.00;101280.16;5423174;26;20006;-73
2024/04/10 01:34:08;;;;;;;3.03;0.43;;;;;;;7.07;100.00;101286.97;5438728;26;20030;-73
2024/04/10 01:36:36;;;;;;;1.58;0.32;;;;;;;7.00;100.00;101287.56;5443036;26;20076;-73
2024/04/10 01:39:09;;;;;;;2.28;0.43;;;;;;;6.92;100.00;101292.13;5465790;26;20003;-72
2024/04/10 01:41:36;;;;;;;3.10;0.55;;;;;;;6.89;100.00;101293.91;5435548;26;20061;-72
2024/04/10 01:44:07;;;;;;;1.85;0.30;;;;;;;6.84;100.00;101294.69;5441757;26;20067;-72
2024/04/10 01:46:35;;;;;;;5.88;0.90;;;;;;;6.81;100.00;101284.69;5433911;26;20007;-73
2024/04/10 01:49:05;;;;;;;0.52;0.15;;;;;;;6.79;100.00;101287.22;5437791;26;20023;-73
2024/04/10 01:51:33;;;;;;;4.95;0.38;;;;;;;6.78;100.00;101294.00;5443636;26;20046;-73
2024/04/10 01:54:03;;;;;;;2.78;0.45;;;;;;;6.72;100.00;101285.75;5438974;26;20650;-72
2024/04/10 01:56:33;;;;;;;1.77;0.30;;;;;;;6.69;100.00;101300.56;5438687;26;20311;-73
2024/04/10 01:59:04;;;;;;;3.40;0.38;;;;;;;6.65;100.00;101306.38;5434642;26;20044;-73
2024/04/10 02:01:34;;;;;;;2.40;0.30;;;;;;;6.58;100.00;101306.16;5435863;26;20355;-73
2024/04/10 02:04:05;;;;;;;0.30;0.20;;;;;;;6.51;100.00;101315.72;5438816;26;20007;-73
2024/04/10 02:06:34;;;;;;;3.70;0.77;;;;;;;6.41;100.00;101311.75;5434880;26;20003;-73
2024/04/10 02:09:04;;;;;;;2.50;0.50;;;;;;;6.35;100.00;101317.28;5439501;26;20003;-73
2024/04/10 02:11:38;;;;;;;1.23;0.40;;;;;;;6.28;100.00;101323.34;5443074;26;19998;-71
2024/04/10 02:14:08;;;;;;;0.70;0.25;;;;;;;6.20;100.00;101319.63;5439253;26;20007;-71
2024/04/10 02:16:36;;;;;;;0.35;0.20;;;;;;;6.12;100.00;101324.16;5440340;26;20009;-71
2024/04/10 02:19:06;;;;;;;0.95;0.32;;;;;;;6.03;100.00;101331.47;5438256;26;20486;-71
2024/04/10 02:21:34;;;;;;;0.90;0.30;;;;;;;6.09;100.00;101330.69;5439214;26;20657;-71
2024/04/10 02:24:04;;;;;;;1.42;0.30;;;;;;;6.05;100.00;101332.94;5450951;26;20015;-71
2024/04/10 02:26:35;;;;;;;1.30;0.40;;;;;;;6.05;100.00;101339.22;5452091;26;20057;-71
2024/04/10 02:29:05;;;;;;;1.67;0.40;;;;;;;6.04;100.00;101340.47;5455113;26;20022;-70
2024/04/10 02:31:33;;;;;;;1.52;0.32;;;;;;;6.09;100.00;101333.44;5457198;26;20003;-70
2024/04/10 02:34:04;;;;;;;1.45;0.70;;;;;;;6.18;100.00;101344.16;5459269;26;19998;-70
2024/04/10 02:36:31;;;;;;;0.80;0.50;;;;;;;6.21;100.00;101346.69;5461230;26;20014;-70
2024/04/10 02:39:02;;;;;;;4.82;0.40;;;;;;;6.12;100.00;101352.47;5463683;26;19999;-70
2024/04/10 02:41:29;;;;;;;1.98;0.80;;;;;;;6.18;100.00;101347.69;5461262;26;20056;-69
2024/04/10 02:44:03;;;;;;;1.75;0.85;;;;;;;6.29;100.00;101355.16;5451602;26;20019;-71
2024/04/10 02:46:31;;;;;;;2.55;0.93;;;;;;;6.37;100.00;101356.13;5439597;26;20017;-71
2024/04/10 02:49:01;;;;;;;5.15;1.02;;;;;;;6.36;100.00;101365.66;5441983;26;20003;-71
2024/04/10 02:51:29;;;;;;;0.82;0.40;;;;;;;6.42;100.00;101373.91;5438251;26;20031;-71
2024/04/10 02:53:59;;;;;;;4.15;0.70;;;;;;;6.62;100.00;101372.81;5433252;26;20028;-70
2024/04/10 02:56:27;;;;;;;1.95;0.52;;;;;;;6.57;100.00;101379.09;5442192;26;20021;-71
2024/04/10 02:58:58;;;;;;;2.85;0.40;;;;;;;6.57;100.00;101384.63;5455352;26;20014;-71
2024/04/10 03:01:29;;;;;;;1.95;0.22;;;;;;;6.57;100.00;101381.84;5426727;26;20000;-71
2024/04/10 03:04:01;;;;;;;1.58;0.40;;;;;;;6.57;100.00;101390.88;5455285;26;20002;-71
2024/04/10 03:06:29;;;;;;;4.57;0.63;;;;;;;6.61;100.00;101385.13;5432052;26;20019;-71
2024/04/10 03:09:00;;;;;;;1.27;0.35;;;;;;;6.62;100.00;101392.13;5438067;26;20003;-71
2024/04/10 03:11:28;;;;;;;0.63;0.30;;;;;;;6.65;100.00;101391.88;5430442;26;20084;-71
2024/04/10 03:14:00;;;;;;;3.25;0.63;;;;;;;6.71;100.00;101404.88;5430019;26;20033;-71
2024/04/10 03:16:30;;;;;;;1.25;0.38;;;;;;;6.72;100.00;101406.38;5438916;26;19998;-71
2024/04/10 03:19:01;;;;;;;1.77;0.60;;;;;;;6.72;100.00;101411.88;5426816;26;19999;-71
2024/04/10 03:21:28;;;;;;;2.22;0.85;;;;;;;6.68;100.00;101412.16;5444101;26;20350;-71
2024/04/10 03:23:59;;;;;;;0.40;0.20;;;;;;;6.65;100.00;101424.19;5445452;26;20076;-71
2024/04/10 03:26:26;;;;;;;1.35;0.40;;;;;;;6.62;100.00;101422.44;5444647;26;20018;-71
2024/04/10 03:28:57;;;;;;;3.72;0.50;;;;;;;6.58;100.00;101419.22;5439817;26;20007;-72
2024/04/10 03:31:25;;;;;;;1.23;0.40;;;;;;;6.63;100.00;101423.97;5445212;26;20011;-71
2024/04/10 03:33:58;;;;;;;0.98;0.25;;;;;;;6.54;100.00;101430.50;5441850;26;20010;-72
2024/04/10 03:36:25;;;;;;;2.30;0.40;;;;;;;6.46;100.00;101430.28;5450988;26;20202;-71
2024/04/10 03:38:56;;;;;;;5.10;0.68;;;;;;;6.39;100.00;101430.81;5456394;26;20017;-71
2024/04/10 03:41:24;;;;;;;4.30;0.52;;;;;;;6.30;100.00;101424.81;5447931;26;20021;-71
2024/04/10 03:43:56;;;;;;;0.38;0.20;;;;;;;6.21;100.00;101434.13;5443345;26;20083;-72
2024/04/10 03:46:27;;;;;;;1.67;0.50;;;;;;;6.12;100.00;101445.41;5440629;26;20038;-71
2024/04/10 03:49:00;;;;;;;2.85;0.68;;;;;;;6.03;100.00;101435.38;5427674;26;20014;-71
2024/04/10 03:51:30;;;;;;;2.53;0.47;;;;;;;5.97;100.00;101443.69;5439001;26;20716;-71
2024/04/10 03:53:58;;;;;;;2.70;0.63;;;;;;;5.98;100.00;101447.94;5441459;26;20010;-71
2024/04/10 03:56:28;;;;;;;1.90;0.63;;;;;;;5.91;100.00;101448.41;5461033;26;20238;-71
2024/04/10 03:58:56;;;;;;;1.05;0.28;;;;;;;5.88;100.00;101438.38;5458444;26;20014;-72
2024/04/10 04:01:28;;;;;;;6.10;0.68;;;;;;;5.82;100.00;101449.41;5445222;26;20006;-72
2024/04/10 04:04:03;;;;;;;3.30;0.47;;;;;;;5.86;100.00;101453.91;5438236;26;20101;-71
2024/04/10 04:06:33;;;;;;;1.33;0.40;;;;;;;5.82;100.00;101462.44;5436494;26;20091;-72
2024/04/10 04:09:02;;;;;;;1.40;0.40;;;;;;;5.77;100.00;101465.94;5437097;26;19999;-71
2024/04/10 04:11:33;;;;;;;1.42;0.32;;;;;;;5.69;100.00;101464.97;5437361;26;20017;-71
2024/04/10 04:14:03;;;;;;;2.58;0.57;;;;;;;5.64;100.00;101468.44;5439980;26;20003;-71
2024/04/10 04:16:34;;;;;;;1.85;0.57;;;;;;;5.66;100.00;101476.94;5443347;26;20415;-71
2024/04/10 04:19:04;;;;;;;2.92;0.70;;;;;;;5.66;100.00;101479.69;5440944;26;20247;-71
2024/04/10 04:21:35;;;;;;;4.82;0.43;;;;;;;5.69;100.00;101487.00;5442813;26;20006;-71
2024/04/10 04:24:03;;;;;;;0.90;0.20;;;;;;;5.72;100.00;101488.72;5427211;26;20003;-71
2024/04/10 04:26:33;;;;;;;0.55;0.20;;;;;;;5.77;100.00;101499.00;5454003;26;20681;-71
2024/04/10 04:29:01;;;;;;;2.55;0.30;;;;;;;5.78;100.00;101506.00;5435878;26;20015;-70
2024/04/10 04:31:34;;;;;;;2.78;0.35;;;;;;;5.77;100.00;101515.53;5431467;26;20003;-71
2024/04/10 04:34:09;;;;;;;2.38;0.47;;;;;;;5.77;100.00;101515.53;5442773;26;20002;-71
2024/04/10 04:36:41;;;;;;;5.18;0.60;;;;;;;5.78;100.00;101520.53;5439254;26;20007;-71
2024/04/10 04:39:13;;;;;;;2.95;0.60;;;;;;;5.86;100.00;101540.06;5440286;26;20413;-71
2024/04/10 04:41:44;;;;;;;3.70;0.45;;;;;;;5.93;100.00;101539.56;5441596;26;20014;-71
2024/04/10 04:44:12;;;;;;;0.80;0.43;;;;;;;5.94;100.00;101537.59;5442944;26;20096;-71
2024/04/10 04:46:44;;;;;;;2.40;0.68;;;;;;;5.92;100.00;101543.56;5441636;26;20019;-71
2024/04/10 04:49:15;;;;;;;1.05;0.30;;;;;;;5.90;100.00;101551.59;5432411;26;20628;-71
2024/04/10 04:51:45;;;;;;;2.03;0.30;;;;;;;5.87;100.00;101558.09;5426620;26;20013;-73
2024/04/10 04:54:13;;;;;;;1.00;0.55;;;;;;;5.85;100.00;101563.34;5437983;26;20014;-71
2024/04/10 04:56:43;;;;;;;1.60;0.57;;;;;;;5.87;100.00;101560.84;5441087;26;20022;-73
2024/04/10 04:59:11;;;;;;;5.72;0.68;;;;;;;5.86;100.00;101567.63;5440761;26;20002;-73
2024/04/10 05:01:45;;;;;;;1.90;0.38;;;;;;;5.84;100.00;101575.63;5443671;26;20753;-71
2024/04/10 05:07:06;;;;;;;0.90;0.28;;;;;;;5.95;100.00;101572.16;5437454;26;20014;-71
2024/04/10 05:09:34;;;;;;;1.80;0.50;;;;;;;6.07;100.00;101575.69;5437368;26;20007;-71
2024/04/10 05:12:04;;;;;;;1.48;0.50;;;;;;;6.13;100.00;101579.19;5429835;26;20004;-72
2024/04/10 05:14:32;;;;;;;1.45;0.65;;;;;;;6.21;100.00;101580.94;5438896;26;20005;-72
2024/04/10 05:17:03;;;;;;;1.67;0.38;;;;;;;6.26;100.00;101576.69;5441809;26;20076;-72
2024/04/10 05:19:35;;;;;;;2.65;0.65;;;;;;;6.38;100.00;101582.94;5442057;26;20003;-72
2024/04/10 05:22:05;;;;;;;7.32;1.30;;;;;;;6.50;100.00;101594.72;5432665;26;20335;-72
2024/04/10 05:24:33;;;;;;;1.50;0.32;;;;;;;6.53;100.00;101599.97;5438773;26;20007;-71
2024/04/10 05:27:06;;;;;;;7.35;0.85;;;;;;;6.65;100.00;101603.47;5438945;26;20014;-71
2024/04/10 05:29:35;;;;;;;7.57;0.85;;;;;;;6.75;100.00;101604.72;5442514;26;20126;-71
2024/04/10 05:32:06;;;;;;;4.78;0.65;;;;;;;6.88;100.00;101613.22;5439733;26;20762;-71
2024/04/10 05:34:36;;;;;;;3.05;0.63;;;;;;;7.07;100.00;101629.22;5441002;26;20042;-72
2024/04/10 05:37:07;;;;;;;1.15;0.40;;;;;;;7.29;100.00;101631.16;5440786;26;20030;-72
2024/04/10 05:39:35;;;;;;;2.42;0.47;;;;;;;7.49;100.00;101628.06;5435469;26;21100;-72
2024/04/10 05:42:07;;;;;;;1.95;1.02;;;;;;;7.61;100.00;101633.53;5438682;26;20108;-72
2024/04/10 05:44:34;;;;;;;3.97;0.40;;;;;;;7.71;100.00;101638.25;5440077;26;20010;-72
2024/04/10 05:47:08;;;;;;;11.10;1.07;;;;;;;7.86;100.00;101637.16;5429204;26;20022;-72
2024/04/10 05:49:49;;;;;;;1.58;0.50;;;;;;;8.00;100.00;101643.63;5441512;26;20924;-72
2024/04/10 05:52:20;;;;;;;6.43;0.98;;;;;;;8.13;100.00;101639.00;5442572;26;20003;-72
2024/04/10 05:54:48;;;;;;;1.90;0.52;;;;;;;8.14;100.00;101637.75;5453876;26;19999;-71
2024/04/10 05:57:20;;;;;;;4.95;0.52;;;;;;;8.17;100.00;101638.72;5444627;26;20075;-72
2024/04/10 05:59:51;;;;;;;3.35;0.95;;;;;;;8.21;100.00;101649.50;5451968;26;20015;-72
2024/04/10 06:02:27;;;;;;;2.92;0.68;;;;;;;8.11;100.00;101649.84;5450799;26;20006;-72
2024/04/10 06:04:58;;;;;;;6.97;0.93;;;;;;;8.10;100.00;101645.56;5452935;26;20011;-72
2024/04/10 06:07:29;;;;;;;1.75;0.45;;;;;;;8.10;100.00;101658.63;5441949;26;20003;-72
2024/04/10 06:09:57;;;;;;;2.33;0.40;;;;;;;8.14;100.00;101656.34;5432604;26;20018;-72
2024/04/10 06:12:28;;;;;;;2.72;0.65;;;;;;;8.18;100.00;101654.03;5430784;26;20015;-72
2024/04/10 06:14:58;;;;;;;3.90;0.40;;;;;;;8.25;100.00;101644.47;5437472;26;20044;-72
2024/04/10 06:17:26;;;;;;;2.17;0.60;;;;;;;8.35;100.00;101646.38;5442454;26;20413;-72
2024/04/10 06:20:04;;;;;;;0.88;0.45;;;;;;;8.36;100.00;101663.75;5437976;26;20786;-73
2024/04/10 06:22:32;;;;;;;4.65;0.52;;;;;;;8.54;100.00;101662.38;5422026;26;20121;-72
2024/04/10 06:25:03;;;;;;;1.58;0.35;;;;;;;8.57;100.00;101662.06;5431525;26;20022;-73
2024/04/10 06:27:30;;;;;;;2.38;0.68;;;;;;;8.59;100.00;101659.56;5425429;26;20018;-73
2024/04/10 06:30:04;;;;;;;1.67;0.65;;;;;;;8.93;100.00;101675.84;5441165;26;20018;-73
2024/04/10 06:32:32;;;;;;;1.75;0.73;;;;;;;9.18;100.00;101671.06;5430476;26;20088;-73
2024/04/10 06:35:07;;;;;;;1.70;0.50;;;;;;;9.16;100.00;101678.41;5467156;26;20088;-72
2024/04/10 06:37:35;;;;;;;7.15;0.93;;;;;;;9.45;100.00;101674.06;5432753;26;20035;-72
2024/04/10 06:40:08;;;;;;;3.13;0.73;;;;;;;9.57;100.00;101675.41;5433684;26;20003;-71
2024/04/10 06:42:36;;;;;;;1.83;0.60;;;;;;;9.82;100.00;101678.88;5432447;26;20007;-73
2024/04/10 06:45:07;;;;;;;0.93;0.35;;;;;;;10.20;100.00;101678.84;5430869;26;20015;-73
2024/04/10 06:47:36;;;;;;;10.27;0.77;;;;;;;10.10;100.00;101681.25;5428247;26;20007;-72
2024/04/10 06:50:13;;;;;;;2.72;0.50;;;;;;;10.46;100.00;101683.78;5435593;26;19999;-73
2024/04/10 06:52:43;;;;;;;4.10;0.77;;;;;;;10.75;100.00;101687.56;5439170;26;20569;-74
2024/04/10 06:55:13;;;;;;;5.10;0.70;;;;;;;10.52;100.00;101686.47;5437581;26;20014;-73
2024/04/10 06:57:41;;;;;;;3.05;0.90;;;;;;;10.51;100.00;101699.59;5442054;26;20075;-73
2024/04/10 07:00:16;;;;;;;5.13;0.85;;;;;;;10.67;100.00;101700.59;5441846;26;20015;-73
2024/04/10 07:02:43;;;;;;;6.88;0.63;;;;;;;11.06;100.00;101698.41;5443561;26;20491;-72
2024/04/10 07:05:17;;;;;;;5.85;1.73;;;;;;;11.06;100.00;101701.94;5442893;26;20002;-73
2024/04/10 07:07:45;;;;;;;4.18;0.55;;;;;;;11.13;100.00;101703.34;5436539;26;20004;-74
2024/04/10 07:10:16;;;;;;;3.28;0.65;;;;;;;11.21;100.00;101706.22;5437471;26;20802;-73
2024/04/10 07:12:45;;;;;;;2.42;0.88;;;;;;;11.32;100.00;101714.34;5444037;26;20467;-73
2024/04/10 07:15:15;;;;;;;1.48;0.20;;;;;;;11.44;100.00;101714.88;5438229;26;20570;-73
2024/04/10 07:17:43;;;;;;;2.95;0.50;;;;;;;11.68;100.00;101716.69;5439172;26;20003;-73
2024/04/10 07:20:17;;;;;;;4.38;0.65;;;;;;;11.80;100.00;101723.50;5442624;26;20010;-74
2024/04/10 07:22:48;;;;;;;3.97;0.73;;;;;;;11.71;100.00;101723.94;5429784;26;20004;-74
2024/04/10 07:25:18;;;;;;;3.92;0.57;;;;;;;11.65;100.00;101724.06;5438669;26;20015;-74
2024/04/10 07:27:47;;;;;;;2.40;0.52;;;;;;;11.68;100.00;101722.25;5442944;26;19999;-74
2024/04/10 07:30:18;;;;;;;3.95;0.60;;;;;;;11.54;100.00;101727.81;5443316;26;20080;-73
2024/04/10 07:32:46;;;;;;;4.35;0.60;;;;;;;11.52;100.00;101733.16;5440747;26;20003;-74
2024/04/10 07:35:19;;;;;;;4.10;0.93;;;;;;;11.89;100.00;101722.34;5432984;26;20006;-73
2024/04/10 07:37:47;;;;;;;0.32;0.15;;;;;;;12.31;100.00;101736.34;5437895;26;20790;-73
2024/04/10 07:40:18;;;;;;;2.17;0.43;;;;;;;12.44;100.00;101733.53;5460066;26;20015;-75
2024/04/10 07:42:45;;;;;;;2.58;0.80;;;;;;;12.53;100.00;101737.88;5440694;26;20076;-74
2024/04/10 07:45:16;;;;;;;1.73;0.55;;;;;;;12.66;100.00;101735.78;5440843;26;20018;-74
2024/04/10 07:47:44;;;;;;;5.85;0.73;;;;;;;12.68;100.00;101735.22;5427027;26;20018;-74
2024/04/10 07:50:15;;;;;;;2.72;0.90;;;;;;;12.90;100.00;101745.06;5445668;26;20007;-71
2024/04/10 07:52:46;;;;;;;5.40;0.57;;;;;;;13.29;100.00;101751.69;5438539;26;20022;-72
2024/04/10 07:55:16;;;;;;;2.13;0.45;;;;;;;13.63;100.00;101750.78;5432188;26;20022;-74
2024/04/10 07:57:44;;;;;;;6.20;0.75;;;;;;;13.95;100.00;101753.91;5438577;26;20785;-74
2024/04/10 08:00:17;;;;;;;12.35;1.15;;;;;;;13.89;100.00;101766.50;5440734;26;20017;-74
2024/04/10 08:02:44;;;;;;;2.25;0.40;;;;;;;13.77;100.00;101760.50;5436318;26;20015;-72
2024/04/10 08:05:15;;;;;;;5.05;0.90;;;;;;;13.90;100.00;101760.41;5436513;26;20042;-71
2024/04/10 08:07:45;;;;;;;3.50;0.93;;;;;;;13.02;100.00;101765.03;5460307;26;19999;-73
2024/04/10 08:10:17;;;;;;;8.20;1.30;;;;;;;12.74;100.00;101765.72;5459946;26;20128;-73
2024/04/10 08:12:45;;;;;;;3.70;1.15;;;;;;;13.48;100.00;101768.19;5445966;26;20003;-74
2024/04/10 08:15:15;;;;;;;3.10;0.80;;;;;;;13.55;100.00;101775.84;5438312;26;20018;-75
2024/04/10 08:17:43;;;;;;;1.58;0.52;;;;;;;13.56;100.00;101777.31;5398256;26;20015;-74
2024/04/10 08:20:14;;;;;;;8.45;0.60;;;;;;;13.88;100.00;101784.56;5427419;26;20015;-74
2024/04/10 08:22:42;;;;;;;6.82;0.90;;;;;;;14.58;99.13;101795.41;5430200;26;20489;-74
2024/04/10 08:25:16;;;;;;;7.85;0.80;;;;;;;14.32;100.00;101793.66;5432276;26;20024;-72
2024/04/10 08:27:45;;;;;;;7.13;0.77;;;;;;;14.42;100.00;101793.88;5436546;26;20121;-71
2024/04/10 08:30:15;;;;;;;3.00;0.70;;;;;;;13.97;100.00;101800.78;5439776;26;20075;-74
2024/04/10 08:32:43;;;;;;;3.53;0.40;;;;;;;13.94;100.00;101807.47;5434877;26;20087;-71
2024/04/10 08:35:14;;;;;;;3.65;0.90;;;;;;;13.63;100.00;101806.56;5443140;26;20052;-71
2024/04/10 08:37:42;;;;;;;4.28;0.63;;;;;;;13.61;100.00;101812.69;5436803;26;20018;-73
2024/04/10 08:40:16;;;;;;;2.95;0.85;;;;;;;14.46;100.00;101816.59;5436287;26;20093;-74
2024/04/10 08:42:48;;;;;;;7.25;1.40;;;;;;;14.90;91.49;101824.16;5436553;26;20113;-73
2024/04/10 08:45:23;;;;;;;2.08;0.68;;;;;;;14.72;98.43;101834.38;5437470;26;20003;-74
2024/04/10 08:47:51;;;;;;;7.82;1.15;;;;;;;15.00;90.00;101845.41;5437867;26;20466;-74
2024/04/10 08:50:22;;;;;;;7.93;1.10;;;;;;;15.21;84.71;101839.66;5436377;26;20026;-74
2024/04/10 08:52:53;;;;;;;5.00;0.80;;;;;;;14.85;91.02;101839.81;5430994;26;20000;-74
2024/04/10 08:55:26;;;;;;;3.60;0.65;;;;;;;15.08;92.88;101833.47;5443198;26;20082;-74
2024/04/10 08:57:55;;;;;;;5.53;1.30;;;;;;;14.56;98.67;101839.94;5442625;26;20025;-74
2024/04/10 09:00:26;;;;;;;3.93;1.03;;;;;;;14.86;87.76;101844.09;5436753;26;20019;-74
2024/04/10 09:02:53;;;;;;;4.95;1.00;;;;;;;15.13;80.86;101840.94;5437670;26;20013;-74
2024/04/10 09:05:29;;;;;;;4.20;1.33;;;;;;;15.78;82.92;101841.28;5438001;26;20007;-74
2024/04/10 09:07:58;;;;;;;5.47;0.80;;;;;;;15.64;77.30;101842.78;5438550;26;19998;-74
2024/04/10 09:10:31;;;;;;;3.28;0.90;;;;;;;15.25;83.14;101842.06;5438542;26;20003;-74
2024/04/10 09:13:03;;;;;;;5.05;0.80;;;;;;;15.23;80.23;101844.66;5438353;26;20020;-74
2024/04/10 09:15:36;;;;;;;1.83;0.60;;;;;;;15.13;82.97;101855.66;5436869;26;20018;-75
2024/04/10 09:18:06;;;;;;;5.00;1.02;;;;;;;14.78;81.61;101846.84;5443684;26;20043;-74
2024/04/10 09:20:36;;;;;;;7.03;0.80;;;;;;;14.69;82.26;101846.66;5432606;26;20044;-73
2024/04/10 09:23:05;;;;;;;2.78;0.70;;;;;;;15.12;77.31;101851.38;5436772;26;20019;-73
2024/04/10 09:25:39;;;;;;;;;;;;;;;15.31;77.05;101853.81;5439275;26;20061;-74
2024/04/10 09:28:08;;;;;;;1.00;0.38;;;;;;;14.68;92.61;101848.69;5436475;26;20647;-74
2024/04/10 09:30:40;;;;;;;1.73;0.73;;;;;;;14.89;83.92;101851.38;5439183;26;20007;-73
2024/04/10 09:33:12;;;;;;;5.43;1.00;;;;;;;15.26;91.49;101860.34;5443259;26;20011;-74
2024/04/10 09:35:41;;;;;;;2.28;0.52;;;;;;;16.01;76.96;101858.00;5442212;26;20011;-73
2024/04/10 09:38:13;;;;;;;3.53;0.50;;;;;;;16.59;71.22;101865.81;5431804;26;20482;-73
2024/04/10 09:40:51;;;;;;;3.33;0.57;;;;;;;16.98;71.85;101853.06;5450446;26;20006;-71
2024/04/10 09:43:26;;;;;;;2.15;0.90;;;;;;;17.47;66.94;101865.56;5450727;26;20029;-74
2024/04/10 09:45:59;;;;;;;;;;;;;;;17.03;64.21;101859.78;5456115;26;20013;-70
2024/04/10 09:48:33;;;;;;;4.13;0.85;;;;;;;17.52;59.91;101858.25;5463069;26;19916;-72
2024/04/10 09:51:04;;;;;;;2.95;0.60;;;;;;;17.56;58.78;101850.91;5446806;26;20018;-73
2024/04/10 09:53:37;;;;;;;3.65;0.90;;;;;;;16.49;77.21;101844.03;5440126;26;20724;-74
2024/04/10 09:56:09;;;;;;;3.72;1.02;;;;;;;17.25;63.29;101852.50;5431970;26;20003;-74
2024/04/10 09:58:42;;;;;;;1.10;0.43;;;;;;;17.84;63.88;101851.78;5441324;26;20050;-73
2024/04/10 10:01:10;;;;;;;5.43;0.82;;;;;;;18.05;63.67;101854.91;5434693;26;20076;-72
2024/04/10 10:03:41;;;;;;;1.63;0.50;;;;;;;18.66;55.17;101849.81;5437359;26;20022;-72
2024/04/10 10:06:11;;;;;;;3.70;0.68;;;;;;;19.42;52.13;101858.41;5440591;26;20845;-75
2024/04/10 10:08:53;;;;;;;4.68;0.70;;;;;;;18.54;56.78;101848.84;5442727;26;20031;-72
2024/04/10 10:11:24;;;;;;;3.15;0.70;;;;;;;18.63;60.54;101862.22;5435937;26;20017;-74
2024/04/10 10:13:59;;;;;;;3.00;0.88;;;;;;;19.25;53.84;101862.06;5444485;26;20017;-76
2024/04/10 10:16:28;;;;;;;2.50;0.60;;;;;;;18.84;50.94;101862.53;5442307;26;20014;-73
2024/04/10 10:19:03;;;;;;;3.42;0.75;;;;;;;18.48;51.76;101863.91;5457688;26;20003;-74
2024/04/10 10:21:32;;;;;;;3.55;0.45;;;;;;;17.00;53.87;101860.91;5456946;26;20014;-72
2024/04/10 10:24:05;;;;;;;1.92;0.52;;;;;;;16.06;58.74;101865.47;5448303;26;20893;-73
2024/04/10 10:26:36;;;;;;;7.18;0.80;;;;;;;16.61;57.56;101865.97;5483150;26;20010;-73
2024/04/10 10:29:08;;;;;;;2.28;0.60;;;;;;;17.67;58.72;101860.16;5457529;26;20350;-74
2024/04/10 10:31:39;;;;;;;3.70;0.75;;;;;;;18.16;58.03;101866.97;5447097;26;20087;-74
2024/04/10 10:34:12;;;;;;;5.10;0.85;;;;;;;18.22;59.00;101859.78;5439778;26;20003;-74
2024/04/10 10:36:40;;;;;;;4.68;0.77;;;;;;;18.91;50.88;101861.66;5441590;26;20036;-73
2024/04/10 10:39:20;;;;;;;1.52;0.55;;;;;;;18.64;54.39;101864.47;5436454;26;20075;-74
2024/04/10 10:41:59;;;;;;;3.65;0.70;;;;;;;19.22;52.90;101872.44;5426538;26;20038;-74
2024/04/10 10:44:31;;;;;;;3.63;0.63;;;;;;;19.95;46.66;101865.16;5431718;26;20007;-74
2024/04/10 10:46:59;;;;;;;2.15;0.45;;;;;;;19.75;47.52;101856.69;5438558;26;20011;-74
2024/04/10 10:49:30;;;;;;;4.65;0.50;;;;;;;19.87;44.36;101867.38;5438448;26;20577;-74
2024/04/10 10:51:58;;;;;;;4.90;0.82;;;;;;;20.82;44.16;101867.09;5437681;26;20005;-74
2024/04/10 10:54:30;;;;;;;2.72;0.80;;;;;;;20.38;43.78;101868.25;5441539;26;20029;-74
2024/04/10 10:57:04;;;;;;;2.75;0.75;;;;;;;20.53;44.14;101865.09;5427611;26;20018;-74
2024/04/10 10:59:45;;;;;;;2.95;0.60;;;;;;;19.88;45.54;101863.22;5432364;26;20102;-74
2024/04/10 11:02:15;;;;;;;1.52;0.35;;;;;;;19.60;45.21;101854.13;5425795;26;20003;-74
2024/04/10 11:04:48;;;;;;;2.38;0.30;;;;;;;19.72;44.49;101863.50;5436247;26;20006;-74
2024/04/10 11:07:16;;;;;;;2.72;0.45;;;;;;;20.51;42.40;101861.38;5423398;26;20548;-74
2024/04/10 11:09:49;;;;;;;3.30;0.63;;;;;;;20.03;42.55;101859.38;5441229;26;20011;-74
2024/04/10 11:12:20;;;;;;;2.15;0.65;;;;;;;19.90;41.73;101857.75;5437143;26;20677;-74
2024/04/10 11:14:50;;;;;;;2.63;0.50;;;;;;;20.06;41.77;101861.75;5438321;26;20017;-74
2024/04/10 11:17:20;;;;;;;3.40;0.40;;;;;;;19.31;44.00;101848.44;5436379;26;20000;-74
2024/04/10 11:19:52;;;;;;;2.88;0.50;;;;;;;20.11;42.35;101849.44;5436177;26;20040;-74
2024/04/10 11:22:19;;;;;;;1.83;0.70;;;;;;;19.32;44.84;101849.94;5438723;26;20018;-74
2024/04/10 11:24:53;;;;;;;;;;;;;;;18.48;44.07;101837.88;5437630;26;20009;-74
2024/04/10 11:27:24;;;;;;;1.48;0.70;;;;;;;18.69;47.15;101837.41;5437436;26;19932;-74
2024/04/10 11:29:54;;;;;;;2.22;0.47;;;;;;;20.07;42.88;101839.94;5438021;26;20018;-75
2024/04/10 11:32:22;;;;;;;1.77;0.30;;;;;;;19.16;44.33;101832.56;5430757;26;20006;-74
2024/04/10 11:34:53;;;;;;;2.42;0.77;;;;;;;17.96;45.69;101838.00;5437988;26;20035;-73
2024/04/10 11:37:21;;;;;;;3.10;0.77;;;;;;;16.69;47.93;101845.03;5442066;26;20225;-74
2024/04/10 11:39:52;;;;;;;3.10;0.68;;;;;;;15.89;50.54;101848.53;5440344;26;20010;-74
2024/04/10 11:42:20;;;;;;;1.38;0.50;;;;;;;15.83;50.51;101848.75;5429113;26;20829;-73